Time;durP1;ratioP1;P1;durP2;ratioP2;P2;SDS_P1;SDS_P2;PMS_P1;PMS_P2;Temp;Humidity;BMP_temperature;BMP_pressure;BME280_temperature;BME280_humidity;BME280_pressure;Samples;Min_cycle;Max_cycle;Signal;HPM_P1;HPM_P2
2022/11/29 00:01:12;;;;;;;104.95;20.50;;;;;;;;;;5071677;28;20048;-68
2022/11/29 00:03:38;;;;;;;105.32;19.85;;;;;;;;;;5069843;28;20205;-68
2022/11/29 00:06:06;;;;;;;92.25;19.27;;;;;;;;;;5069986;28;20036;-68
2022/11/29 00:08:32;;;;;;;97.65;19.90;;;;;;;;;;5053130;28;20125;-68
2022/11/29 00:11:03;;;;;;;123.35;20.70;;;;;;;;;;5053379;28;20104;-68
2022/11/29 00:13:29;;;;;;;123.10;19.00;;;;;;;;;;5046476;28;20051;-68
2022/11/29 00:15:55;;;;;;;185.07;21.33;;;;;;;;;;5043178;28;20052;-68
2022/11/29 00:18:21;;;;;;;172.50;22.50;;;;;;;;;;5064032;28;20063;-68
2022/11/29 00:20:47;;;;;;;144.57;20.45;;;;;;;;;;5073723;28;20047;-68
2022/11/29 00:23:13;;;;;;;196.25;22.63;;;;;;;;;;5068901;28;20071;-68
2022/11/29 00:25:39;;;;;;;164.95;21.05;;;;;;;;;;5052137;28;20044;-68
2022/11/29 00:28:05;;;;;;;186.48;21.65;;;;;;;;;;5050068;28;20552;-68
2022/11/29 00:30:32;;;;;;;173.98;21.50;;;;;;;;;;5068528;28;20040;-68
2022/11/29 00:32:58;;;;;;;149.80;19.35;;;;;;;;;;5071457;28;20059;-68
2022/11/29 00:35:24;;;;;;;179.88;20.35;;;;;;;;;;5070303;28;20075;-68
2022/11/29 00:37:50;;;;;;;202.60;22.08;;;;;;;;;;5052240;28;20094;-68
2022/11/29 00:40:16;;;;;;;143.32;20.10;;;;;;;;;;5049565;28;20032;-67
2022/11/29 00:42:43;;;;;;;143.85;19.60;;;;;;;;;;5070168;28;20491;-68
2022/11/29 00:45:09;;;;;;;136.85;18.45;;;;;;;;;;5071863;28;20094;-68
2022/11/29 00:47:35;;;;;;;171.48;20.40;;;;;;;;;;5069396;28;20044;-68
2022/11/29 00:50:02;;;;;;;129.68;19.60;;;;;;;;;;5072459;28;20119;-68
2022/11/29 00:52:28;;;;;;;135.98;20.38;;;;;;;;;;5069333;28;20051;-68
2022/11/29 00:54:54;;;;;;;105.22;18.33;;;;;;;;;;5052378;28;20066;-68
2022/11/29 00:57:20;;;;;;;114.22;18.48;;;;;;;;;;5070167;28;20511;-67
2022/11/29 00:59:46;;;;;;;127.00;19.52;;;;;;;;;;5071869;28;20066;-68
2022/11/29 01:02:12;;;;;;;110.90;19.17;;;;;;;;;;5068735;28;20403;-67
2022/11/29 01:04:38;;;;;;;106.50;18.27;;;;;;;;;;5072535;28;20372;-68
2022/11/29 01:07:04;;;;;;;98.82;18.15;;;;;;;;;;5055008;28;20561;-67
2022/11/29 01:09:31;;;;;;;93.55;18.23;;;;;;;;;;5051088;28;20511;-68
2022/11/29 01:11:57;;;;;;;95.97;18.63;;;;;;;;;;5050364;28;20123;-68
2022/11/29 01:14:23;;;;;;;93.03;18.38;;;;;;;;;;5071748;28;20075;-68
2022/11/29 01:16:49;;;;;;;111.68;19.58;;;;;;;;;;5068224;28;20047;-69
2022/11/29 01:19:15;;;;;;;66.80;16.88;;;;;;;;;;5073290;28;20483;-68
2022/11/29 01:21:41;;;;;;;98.60;19.20;;;;;;;;;;5069437;28;20044;-68
2022/11/29 01:24:08;;;;;;;82.80;17.98;;;;;;;;;;5068256;28;20041;-68
2022/11/29 01:26:34;;;;;;;91.75;17.75;;;;;;;;;;5073448;28;20144;-68
2022/11/29 01:29:00;;;;;;;189.27;23.73;;;;;;;;;;5069603;28;20044;-68
2022/11/29 01:31:28;;;;;;;86.80;16.80;;;;;;;;;;5066722;28;20049;-68
2022/11/29 01:33:55;;;;;;;88.97;16.67;;;;;;;;;;5052469;28;20041;-67
2022/11/29 01:36:22;;;;;;;82.68;16.92;;;;;;;;;;5070756;28;20128;-68
2022/11/29 01:38:48;;;;;;;75.25;16.25;;;;;;;;;;5069663;28;20100;-68
2022/11/29 01:41:16;;;;;;;80.63;15.20;;;;;;;;;;5052394;28;20059;-68
2022/11/29 01:44:01;;;;;;;49.25;14.65;;;;;;;;;;5054001;28;20517;-68
2022/11/29 01:46:28;;;;;;;81.13;15.88;;;;;;;;;;5070468;28;20036;-68
2022/11/29 01:48:58;;;;;;;73.55;14.13;;;;;;;;;;5070195;28;20043;-68
2022/11/29 01:51:25;;;;;;;94.63;14.88;;;;;;;;;;5047753;28;20044;-68
2022/11/29 01:53:51;;;;;;;50.20;12.93;;;;;;;;;;5054128;28;20056;-68
2022/11/29 01:56:17;;;;;;;56.70;13.90;;;;;;;;;;5053627;28;20135;-67
2022/11/29 01:58:44;;;;;;;37.20;13.15;;;;;;;;;;5050464;28;20036;-68
2022/11/29 02:01:10;;;;;;;59.63;14.90;;;;;;;;;;5074596;28;20055;-68
2022/11/29 02:03:37;;;;;;;60.90;14.77;;;;;;;;;;5069382;28;20061;-68
2022/11/29 02:06:04;;;;;;;51.33;13.65;;;;;;;;;;5050159;28;20055;-68
2022/11/29 02:08:35;;;;;;;42.80;13.60;;;;;;;;;;5054735;28;20047;-68
2022/11/29 02:11:15;;;;;;;47.47;13.32;;;;;;;;;;5071594;28;20058;-68
2022/11/29 02:13:58;;;;;;;120.25;16.15;;;;;;;;;;5070742;28;20051;-68
2022/11/29 02:16:33;;;;;;;156.57;18.42;;;;;;;;;;5049303;28;20049;-68
2022/11/29 02:19:03;;;;;;;198.48;16.05;;;;;;;;;;5054989;28;20052;-68
2022/11/29 02:21:36;;;;;;;79.55;12.88;;;;;;;;;;5071890;28;20102;-68
2022/11/29 02:24:21;;;;;;;199.13;18.42;;;;;;;;;;5054395;28;20500;-68
2022/11/29 02:27:06;;;;;;;192.65;17.58;;;;;;;;;;5066801;28;20087;-67
2022/11/29 02:29:50;;;;;;;211.80;17.02;;;;;;;;;;5051491;28;20051;-68
2022/11/29 02:32:20;;;;;;;221.63;17.73;;;;;;;;;;5055053;28;22759;-68
2022/11/29 02:35:10;;;;;;;208.93;17.15;;;;;;;;;;5052143;28;20048;-68
2022/11/29 02:37:46;;;;;;;264.55;18.45;;;;;;;;;;5073093;28;20133;-68
2022/11/29 02:40:21;;;;;;;207.98;15.80;;;;;;;;;;5074700;28;20058;-68
2022/11/29 02:43:05;;;;;;;242.27;16.25;;;;;;;;;;5067510;28;20086;-68
2022/11/29 02:45:48;;;;;;;170.40;14.75;;;;;;;;;;5072911;28;20044;-68
2022/11/29 02:48:15;;;;;;;190.93;15.95;;;;;;;;;;5054060;28;20044;-68
2022/11/29 02:50:43;;;;;;;204.80;16.63;;;;;;;;;;5068670;28;20111;-68
2022/11/29 02:53:09;;;;;;;180.52;13.93;;;;;;;;;;5068929;28;20055;-68
2022/11/29 02:55:35;;;;;;;177.25;16.52;;;;;;;;;;5051937;28;20139;-68
2022/11/29 02:58:13;;;;;;;161.07;14.23;;;;;;;;;;5070743;28;20123;-68
2022/11/29 03:00:44;;;;;;;187.65;13.90;;;;;;;;;;5054272;28;20048;-68
2022/11/29 03:03:31;;;;;;;162.98;14.93;;;;;;;;;;5073697;28;20040;-68
2022/11/29 03:06:07;;;;;;;165.00;14.85;;;;;;;;;;5053709;28;20048;-67
2022/11/29 03:09:02;;;;;;;164.60;13.65;;;;;;;;;;5054232;28;20173;-68
2022/11/29 03:11:47;;;;;;;192.65;17.35;;;;;;;;;;5070907;28;20047;-68
2022/11/29 03:14:13;;;;;;;174.00;15.15;;;;;;;;;;5055382;28;21850;-68
2022/11/29 03:16:46;;;;;;;159.50;16.02;;;;;;;;;;5072944;28;20032;-68
2022/11/29 03:19:35;;;;;;;159.18;17.10;;;;;;;;;;5070794;28;20452;-68
2022/11/29 03:22:12;;;;;;;147.93;15.10;;;;;;;;;;5068988;28;20048;-67
2022/11/29 03:24:51;;;;;;;142.98;15.00;;;;;;;;;;5052654;28;20040;-68
2022/11/29 03:27:22;;;;;;;91.00;14.00;;;;;;;;;;5072020;28;20401;-68
2022/11/29 03:29:56;;;;;;;117.70;14.25;;;;;;;;;;5071180;28;20679;-68
2022/11/29 03:32:22;;;;;;;;;;;;;;;;;;5072531;28;20050;-67
2022/11/29 03:34:56;;;;;;;128.50;13.07;;;;;;;;;;5070808;28;20315;-67
2022/11/29 03:37:28;;;;;;;176.48;16.90;;;;;;;;;;5054334;28;20043;-67
2022/11/29 03:40:06;;;;;;;172.40;16.50;;;;;;;;;;5071091;28;20044;-67
2022/11/29 03:42:37;;;;;;;137.48;16.88;;;;;;;;;;5056204;28;20493;-67
2022/11/29 03:45:22;;;;;;;139.32;15.73;;;;;;;;;;5054346;28;20053;-68
2022/11/29 03:47:51;;;;;;;146.30;17.27;;;;;;;;;;5070781;28;20064;-67
2022/11/29 03:50:21;;;;;;;169.43;17.52;;;;;;;;;;5059835;28;20040;-67
2022/11/29 03:52:49;;;;;;;117.70;15.55;;;;;;;;;;5070406;28;20052;-67
2022/11/29 03:55:21;;;;;;;118.78;15.13;;;;;;;;;;5072743;28;20047;-67
2022/11/29 03:57:53;;;;;;;52.13;12.82;;;;;;;;;;5073501;28;20036;-67
2022/11/29 04:00:20;;;;;;;41.17;13.45;;;;;;;;;;5069325;28;20123;-67
2022/11/29 04:02:51;;;;;;;42.78;14.27;;;;;;;;;;5072693;28;20048;-68
2022/11/29 04:05:23;;;;;;;36.08;12.13;;;;;;;;;;5073101;28;20036;-68
2022/11/29 04:08:18;;;;;;;45.10;13.23;;;;;;;;;;5073025;28;20101;-67
2022/11/29 04:11:03;;;;;;;48.10;12.48;;;;;;;;;;5073723;28;20032;-67
2022/11/29 04:13:30;;;;;;;56.63;12.95;;;;;;;;;;5073573;28;20460;-67
2022/11/29 04:16:10;;;;;;;61.80;13.10;;;;;;;;;;5072294;28;20040;-67
2022/11/29 04:18:45;;;;;;;63.97;12.80;;;;;;;;;;5070257;28;20040;-67
2022/11/29 04:21:12;;;;;;;127.60;16.10;;;;;;;;;;5049432;28;20036;-67
2022/11/29 04:23:45;;;;;;;71.28;14.02;;;;;;;;;;5071862;28;20122;-67
2022/11/29 04:26:22;;;;;;;120.10;15.23;;;;;;;;;;5052072;28;20044;-67
2022/11/29 04:29:07;;;;;;;134.95;15.27;;;;;;;;;;5070104;28;20295;-68
2022/11/29 04:31:40;;;;;;;206.65;16.88;;;;;;;;;;5072694;28;20101;-67
2022/11/29 04:34:15;;;;;;;214.40;17.40;;;;;;;;;;5070497;28;20044;-67
2022/11/29 04:36:47;;;;;;;189.00;17.10;;;;;;;;;;5072451;28;20082;-67
2022/11/29 04:39:23;;;;;;;224.95;17.80;;;;;;;;;;5072019;28;20043;-67
2022/11/29 04:41:49;;;;;;;157.70;15.63;;;;;;;;;;5048549;28;20048;-67
2022/11/29 04:44:39;;;;;;;165.98;13.70;;;;;;;;;;5058088;28;20040;-67
2022/11/29 04:47:27;;;;;;;143.05;15.93;;;;;;;;;;5078725;28;20055;-68
2022/11/29 04:49:56;;;;;;;87.82;12.80;;;;;;;;;;5077288;28;20058;-67
2022/11/29 04:52:29;;;;;;;44.65;10.27;;;;;;;;;;5054271;28;20052;-67
2022/11/29 04:55:14;;;;;;;49.83;11.18;;;;;;;;;;5070578;28;20041;-67
2022/11/29 04:57:46;;;;;;;31.83;9.77;;;;;;;;;;5074615;28;20047;-67
2022/11/29 05:00:15;;;;;;;22.30;8.77;;;;;;;;;;5070821;28;20033;-68
2022/11/29 05:02:54;;;;;;;43.67;9.10;;;;;;;;;;5073777;28;20044;-67
2022/11/29 05:05:21;;;;;;;23.48;9.10;;;;;;;;;;5057749;28;20515;-67
2022/11/29 05:07:53;;;;;;;17.77;9.98;;;;;;;;;;5074379;28;20039;-68
2022/11/29 05:10:38;;;;;;;20.75;10.57;;;;;;;;;;5050040;28;20057;-67
2022/11/29 05:13:11;;;;;;;20.48;10.85;;;;;;;;;;5073094;28;20044;-67
2022/11/29 05:15:37;;;;;;;20.33;10.93;;;;;;;;;;5070707;28;20036;-67
2022/11/29 05:18:18;;;;;;;17.50;10.23;;;;;;;;;;5072101;28;20040;-67
2022/11/29 05:20:52;;;;;;;18.50;10.45;;;;;;;;;;5073610;28;20048;-67
2022/11/29 05:23:37;;;;;;;25.98;11.65;;;;;;;;;;5072394;28;20132;-67
2022/11/29 05:26:08;;;;;;;19.77;9.95;;;;;;;;;;5076585;28;20056;-67
2022/11/29 05:28:45;;;;;;;16.55;9.90;;;;;;;;;;5073324;28;21934;-68
2022/11/29 05:31:20;;;;;;;19.95;10.50;;;;;;;;;;5065257;28;20123;-68
2022/11/29 05:33:58;;;;;;;16.52;9.57;;;;;;;;;;5073261;28;20040;-67
2022/11/29 05:36:39;;;;;;;22.30;10.43;;;;;;;;;;5057945;28;20045;-67
2022/11/29 05:39:24;;;;;;;29.83;10.40;;;;;;;;;;5074811;28;20055;-68
2022/11/29 05:42:10;;;;;;;19.90;9.32;;;;;;;;;;5076382;28;20129;-67
2022/11/29 05:44:40;;;;;;;20.48;8.48;;;;;;;;;;5074012;28;20041;-68
2022/11/29 05:47:09;;;;;;;19.63;10.10;;;;;;;;;;5072950;28;20040;-67
2022/11/29 05:49:45;;;;;;;19.35;9.85;;;;;;;;;;5071869;28;20125;-67
2022/11/29 05:52:20;;;;;;;30.92;11.70;;;;;;;;;;5071925;28;20045;-67
2022/11/29 05:54:55;;;;;;;21.70;10.88;;;;;;;;;;5076236;28;20089;-67
2022/11/29 05:57:21;;;;;;;27.58;11.93;;;;;;;;;;5074250;28;20043;-67
2022/11/29 05:59:48;;;;;;;24.15;12.02;;;;;;;;;;5075027;28;20365;-67
2022/11/29 06:02:22;;;;;;;29.95;11.52;;;;;;;;;;5074465;28;20466;-67
2022/11/29 06:04:54;;;;;;;22.88;11.40;;;;;;;;;;5071497;28;21625;-67
2022/11/29 06:07:39;;;;;;;38.88;13.43;;;;;;;;;;5069935;28;20052;-68
2022/11/29 06:10:10;;;;;;;35.53;12.98;;;;;;;;;;5067175;28;20037;-68
2022/11/29 06:12:36;;;;;;;25.45;12.73;;;;;;;;;;5065829;28;20048;-68
2022/11/29 06:15:12;;;;;;;38.55;14.52;;;;;;;;;;5053502;28;20052;-68
2022/11/29 06:17:57;;;;;;;46.20;14.65;;;;;;;;;;5071757;28;20056;-68
2022/11/29 06:20:43;;;;;;;36.17;13.70;;;;;;;;;;5067946;28;20036;-67
2022/11/29 06:23:17;;;;;;;37.88;14.98;;;;;;;;;;5071706;28;20070;-67
2022/11/29 06:25:55;;;;;;;51.20;16.05;;;;;;;;;;5069859;28;20075;-67
2022/11/29 06:28:27;;;;;;;42.47;15.52;;;;;;;;;;5067698;28;20126;-67
2022/11/29 06:30:59;;;;;;;38.97;16.48;;;;;;;;;;5070843;28;20598;-67
2022/11/29 06:33:31;;;;;;;39.17;15.40;;;;;;;;;;5070537;28;20048;-67
2022/11/29 06:36:09;;;;;;;38.08;16.50;;;;;;;;;;5073707;28;20052;-67
2022/11/29 06:38:35;;;;;;;43.00;15.10;;;;;;;;;;5060185;28;20044;-67
2022/11/29 06:41:01;;;;;;;38.30;16.38;;;;;;;;;;5055928;28;20048;-67
2022/11/29 06:43:28;;;;;;;45.05;17.40;;;;;;;;;;5076669;28;20495;-67
2022/11/29 06:45:55;;;;;;;40.63;17.48;;;;;;;;;;5080527;28;20055;-67
2022/11/29 06:48:23;;;;;;;39.50;16.48;;;;;;;;;;5090016;28;20040;-67
2022/11/29 06:50:56;;;;;;;38.72;15.15;;;;;;;;;;5081509;28;20234;-67
2022/11/29 06:53:27;;;;;;;46.13;17.73;;;;;;;;;;5061453;28;20072;-66
2022/11/29 06:55:59;;;;;;;40.08;17.17;;;;;;;;;;5084334;28;20140;-67
2022/11/29 06:58:31;;;;;;;39.03;17.20;;;;;;;;;;5059771;28;20048;-67
2022/11/29 07:01:05;;;;;;;34.50;15.48;;;;;;;;;;5056110;28;20049;-67
2022/11/29 07:03:42;;;;;;;32.58;16.25;;;;;;;;;;5056447;28;20239;-67
2022/11/29 07:06:14;;;;;;;39.65;17.35;;;;;;;;;;5045564;28;20103;-66
2022/11/29 07:08:40;;;;;;;39.97;15.88;;;;;;;;;;5077567;28;20403;-67
2022/11/29 07:11:06;;;;;;;36.13;16.33;;;;;;;;;;5078783;28;20068;-67
2022/11/29 07:13:33;;;;;;;31.40;13.82;;;;;;;;;;5080060;28;20090;-67
2022/11/29 07:16:03;;;;;;;28.02;13.63;;;;;;;;;;5059727;28;20480;-66
2022/11/29 07:18:35;;;;;;;31.70;14.50;;;;;;;;;;5061779;28;20040;-68
2022/11/29 07:21:20;;;;;;;34.70;13.80;;;;;;;;;;5082521;28;20079;-67
2022/11/29 07:23:55;;;;;;;35.40;14.13;;;;;;;;;;5075395;28;20123;-67
2022/11/29 07:26:33;;;;;;;33.92;12.95;;;;;;;;;;5074658;28;20055;-67
2022/11/29 07:29:05;;;;;;;31.90;14.15;;;;;;;;;;5059501;28;20048;-67
2022/11/29 07:31:45;;;;;;;35.67;14.32;;;;;;;;;;5083373;28;20390;-66
2022/11/29 07:34:18;;;;;;;38.83;14.93;;;;;;;;;;5075058;28;20043;-67
2022/11/29 07:36:50;;;;;;;30.60;14.55;;;;;;;;;;5070679;28;20086;-67
2022/11/29 07:39:23;;;;;;;33.20;15.15;;;;;;;;;;5076358;28;20363;-67
2022/11/29 07:41:55;;;;;;;41.78;16.67;;;;;;;;;;5072192;28;20163;-67
2022/11/29 07:44:21;;;;;;;44.03;16.63;;;;;;;;;;5059309;28;20646;-67
2022/11/29 07:46:47;;;;;;;40.80;16.15;;;;;;;;;;5076419;28;20480;-67
2022/11/29 07:49:14;;;;;;;45.55;16.17;;;;;;;;;;5075632;28;20036;-67
2022/11/29 07:51:40;;;;;;;42.88;15.23;;;;;;;;;;5055413;28;20052;-67
2022/11/29 07:54:06;;;;;;;43.97;15.85;;;;;;;;;;5049712;28;20052;-67
2022/11/29 07:56:32;;;;;;;46.78;15.52;;;;;;;;;;5075055;28;20112;-67
2022/11/29 07:58:58;;;;;;;39.78;13.77;;;;;;;;;;5072790;28;20068;-67
2022/11/29 08:01:24;;;;;;;51.45;13.60;;;;;;;;;;5075126;28;20048;-67
2022/11/29 08:03:51;;;;;;;44.63;14.07;;;;;;;;;;5073937;28;20040;-68
2022/11/29 08:06:23;;;;;;;49.00;14.13;;;;;;;;;;5072163;28;20040;-67
2022/11/29 08:08:49;;;;;;;59.03;15.32;;;;;;;;;;5077874;28;20457;-67
2022/11/29 08:11:15;;;;;;;47.40;14.93;;;;;;;;;;5075905;28;20488;-67
2022/11/29 08:13:41;;;;;;;54.55;15.52;;;;;;;;;;5074282;28;20366;-67
2022/11/29 08:16:08;;;;;;;50.90;16.10;;;;;;;;;;5072680;28;20531;-67
2022/11/29 08:18:35;;;;;;;55.67;15.98;;;;;;;;;;5071088;28;20154;-67
2022/11/29 08:21:07;;;;;;;69.88;15.93;;;;;;;;;;5075395;28;20036;-67
2022/11/29 08:23:34;;;;;;;65.05;16.10;;;;;;;;;;5056931;28;20072;-67
2022/11/29 08:26:00;;;;;;;61.28;17.02;;;;;;;;;;5071868;28;20043;-67
2022/11/29 08:28:26;;;;;;;56.72;14.90;;;;;;;;;;5075292;28;20044;-67
2022/11/29 08:31:01;;;;;;;45.33;13.25;;;;;;;;;;5077516;28;20036;-67
2022/11/29 08:33:27;;;;;;;61.38;15.10;;;;;;;;;;5070844;28;20041;-67
2022/11/29 08:35:53;;;;;;;67.78;17.92;;;;;;;;;;5076453;28;20122;-67
2022/11/29 08:38:19;;;;;;;62.22;18.08;;;;;;;;;;5053414;28;20044;-67
2022/11/29 08:40:45;;;;;;;64.88;15.98;;;;;;;;;;5074381;28;20044;-67
2022/11/29 08:43:12;;;;;;;42.83;13.27;;;;;;;;;;5072740;28;20068;-67
2022/11/29 08:45:38;;;;;;;55.58;14.52;;;;;;;;;;5071009;28;20147;-67
2022/11/29 08:48:04;;;;;;;50.20;13.88;;;;;;;;;;5054746;28;20055;-67
2022/11/29 08:50:30;;;;;;;48.13;14.63;;;;;;;;;;5050528;28;20064;-65
2022/11/29 08:55:45;;;;;;;52.53;11.55;;;;;;;;;;5062998;28;20056;-67
2022/11/29 08:58:13;;;;;;;51.83;12.32;;;;;;;;;;5056943;28;20044;-67
2022/11/29 09:00:39;;;;;;;40.92;11.00;;;;;;;;;;5071990;28;21487;-67
2022/11/29 09:05:51;;;;;;;47.03;11.60;;;;;;;;;;5087704;28;20036;-67
2022/11/29 09:08:18;;;;;;;57.42;12.50;;;;;;;;;;5089950;28;20052;-67
2022/11/29 09:10:45;;;;;;;41.30;11.70;;;;;;;;;;5059359;28;20484;-67
2022/11/29 09:13:11;;;;;;;60.67;11.80;;;;;;;;;;5069577;28;20079;-67
2022/11/29 09:15:38;;;;;;;46.65;12.05;;;;;;;;;;5069458;28;20063;-67
2022/11/29 09:18:05;;;;;;;50.97;12.68;;;;;;;;;;5066799;28;20053;-67
2022/11/29 09:20:32;;;;;;;48.08;13.05;;;;;;;;;;5049598;28;20044;-67
2022/11/29 09:22:59;;;;;;;61.25;13.48;;;;;;;;;;5081353;28;20040;-67
2022/11/29 09:25:25;;;;;;;44.92;10.52;;;;;;;;;;5088767;28;20040;-67
2022/11/29 09:27:51;;;;;;;45.63;11.93;;;;;;;;;;5066334;28;20198;-67
2022/11/29 09:30:18;;;;;;;47.00;11.02;;;;;;;;;;5078732;28;20128;-67
2022/11/29 09:32:45;;;;;;;47.40;12.00;;;;;;;;;;5068024;28;20069;-67
2022/11/29 09:35:11;;;;;;;39.33;10.80;;;;;;;;;;5082739;28;20047;-68
2022/11/29 09:37:41;;;;;;;50.97;11.32;;;;;;;;;;5066282;28;20051;-67
2022/11/29 09:40:07;;;;;;;45.83;11.52;;;;;;;;;;5085487;28;20382;-67
2022/11/29 09:42:49;;;;;;;53.67;12.55;;;;;;;;;;5082564;28;20054;-67
2022/11/29 09:45:18;;;;;;;43.28;11.60;;;;;;;;;;5064105;28;20044;-67
2022/11/29 09:47:57;;;;;;;41.67;10.88;;;;;;;;;;5088264;28;20048;-67
2022/11/29 09:50:27;;;;;;;45.75;10.77;;;;;;;;;;5033420;28;20124;-67
2022/11/29 09:53:02;;;;;;;46.83;10.50;;;;;;;;;;5088545;28;20071;-67
2022/11/29 09:55:32;;;;;;;49.47;11.13;;;;;;;;;;5080934;28;20044;-67
2022/11/29 09:57:59;;;;;;;56.72;14.25;;;;;;;;;;5082039;28;20537;-67
2022/11/29 10:00:26;;;;;;;54.60;13.05;;;;;;;;;;5055770;28;20175;-67
2022/11/29 10:02:54;;;;;;;48.08;11.05;;;;;;;;;;5057601;28;20086;-67
2022/11/29 10:05:22;;;;;;;42.80;11.52;;;;;;;;;;5071710;28;20040;-67
2022/11/29 10:07:51;;;;;;;47.65;12.95;;;;;;;;;;5082827;28;20399;-67
2022/11/29 10:10:21;;;;;;;61.00;14.30;;;;;;;;;;5080517;28;20119;-67
2022/11/29 10:12:52;;;;;;;57.83;12.80;;;;;;;;;;5076324;28;20459;-72
2022/11/29 10:15:26;;;;;;;56.53;11.77;;;;;;;;;;5083510;28;20467;-67
2022/11/29 10:17:55;;;;;;;71.90;13.63;;;;;;;;;;5082416;28;20043;-67
2022/11/29 10:20:24;;;;;;;56.08;12.35;;;;;;;;;;5083353;28;20040;-67
2022/11/29 10:23:01;;;;;;;48.38;12.40;;;;;;;;;;5084952;28;20044;-67
2022/11/29 10:25:30;;;;;;;67.78;13.68;;;;;;;;;;5082057;28;20088;-67
2022/11/29 10:27:57;;;;;;;49.72;13.18;;;;;;;;;;5079908;28;20097;-67
2022/11/29 10:30:23;;;;;;;53.47;12.05;;;;;;;;;;5070027;28;20044;-67
2022/11/29 10:32:55;;;;;;;51.38;11.57;;;;;;;;;;5081475;28;20257;-67
2022/11/29 10:35:21;;;;;;;56.28;13.85;;;;;;;;;;5059896;28;20048;-67
2022/11/29 10:37:50;;;;;;;58.17;13.13;;;;;;;;;;5087141;28;20040;-67
2022/11/29 10:40:18;;;;;;;56.67;12.38;;;;;;;;;;5064804;28;20052;-67
2022/11/29 10:42:48;;;;;;;47.08;12.45;;;;;;;;;;5080991;28;20047;-67
2022/11/29 10:45:33;;;;;;;67.85;13.38;;;;;;;;;;5087309;28;20044;-67
2022/11/29 10:48:03;;;;;;;57.75;13.45;;;;;;;;;;5085159;28;20086;-67
2022/11/29 10:50:30;;;;;;;54.75;13.30;;;;;;;;;;5082450;28;20036;-67
2022/11/29 10:53:08;;;;;;;50.55;14.18;;;;;;;;;;5082180;28;20109;-67
2022/11/29 10:55:38;;;;;;;52.13;13.05;;;;;;;;;;5075854;28;20036;-67
2022/11/29 10:58:11;;;;;;;64.00;14.20;;;;;;;;;;5065551;28;20040;-67
2022/11/29 11:00:52;;;;;;;57.40;14.30;;;;;;;;;;5064046;28;20045;-67
2022/11/29 11:03:26;;;;;;;59.05;13.38;;;;;;;;;;5087047;28;20028;-67
2022/11/29 11:05:59;;;;;;;46.00;12.85;;;;;;;;;;5076046;28;20131;-67
2022/11/29 11:08:25;;;;;;;46.20;12.98;;;;;;;;;;5060491;28;20049;-67
2022/11/29 11:10:54;;;;;;;48.15;13.05;;;;;;;;;;5076066;28;20051;-67
2022/11/29 11:13:22;;;;;;;42.85;14.63;;;;;;;;;;5065289;28;20063;-68
2022/11/29 11:15:48;;;;;;;47.35;14.90;;;;;;;;;;5064685;28;20047;-67
2022/11/29 11:18:20;;;;;;;45.58;16.02;;;;;;;;;;5064934;28;20032;-68
2022/11/29 11:20:52;;;;;;;43.85;15.60;;;;;;;;;;5068494;28;20458;-67
2022/11/29 11:23:23;;;;;;;44.60;16.08;;;;;;;;;;5064089;28;20056;-67
2022/11/29 11:25:55;;;;;;;46.33;16.88;;;;;;;;;;5061169;28;20476;-67
2022/11/29 11:28:22;;;;;;;49.20;16.65;;;;;;;;;;5058520;28;20399;-65
2022/11/29 11:30:51;;;;;;;48.85;15.75;;;;;;;;;;5089455;28;20047;-68
2022/11/29 11:33:19;;;;;;;42.80;14.88;;;;;;;;;;5061607;28;20133;-65
2022/11/29 11:36:05;;;;;;;31.23;14.90;;;;;;;;;;5063721;28;20116;-65
2022/11/29 11:38:32;;;;;;;38.95;15.10;;;;;;;;;;5063117;28;20451;-65
2022/11/29 11:41:02;;;;;;;32.40;14.60;;;;;;;;;;5076930;28;20526;-65
2022/11/29 11:43:28;;;;;;;31.85;15.85;;;;;;;;;;5057601;28;20055;-65
2022/11/29 11:45:54;;;;;;;31.27;17.23;;;;;;;;;;5078161;28;20120;-65
2022/11/29 11:48:21;;;;;;;32.58;17.85;;;;;;;;;;5088296;28;20463;-65
2022/11/29 11:50:52;;;;;;;31.92;17.08;;;;;;;;;;5078195;28;20049;-65
2022/11/29 11:53:32;;;;;;;30.15;17.25;;;;;;;;;;5083863;28;20044;-65
2022/11/29 11:55:59;;;;;;;30.60;15.65;;;;;;;;;;5080920;28;20076;-65
2022/11/29 11:58:27;;;;;;;27.52;14.27;;;;;;;;;;5086697;28;20095;-65
2022/11/29 12:00:55;;;;;;;27.02;12.85;;;;;;;;;;5058815;28;20109;-65
2022/11/29 12:03:23;;;;;;;20.83;13.00;;;;;;;;;;5066802;28;20048;-65
2022/11/29 12:05:50;;;;;;;23.67;14.45;;;;;;;;;;5060377;28;20392;-68
2022/11/29 12:08:17;;;;;;;28.20;14.52;;;;;;;;;;5086309;28;20396;-67
2022/11/29 12:10:44;;;;;;;21.55;12.98;;;;;;;;;;5084169;28;20115;-68
2022/11/29 12:13:15;;;;;;;23.58;14.45;;;;;;;;;;5087160;28;20047;-67
2022/11/29 12:15:44;;;;;;;21.60;12.93;;;;;;;;;;5057401;28;20047;-67
2022/11/29 12:18:13;;;;;;;23.33;13.15;;;;;;;;;;5080071;28;20070;-67
2022/11/29 12:20:42;;;;;;;24.52;13.52;;;;;;;;;;5087711;28;20127;-67
2022/11/29 12:23:11;;;;;;;21.95;12.38;;;;;;;;;;5062232;28;20122;-67
2022/11/29 12:25:41;;;;;;;20.10;11.80;;;;;;;;;;5084535;28;20032;-68
2022/11/29 12:28:11;;;;;;;19.70;11.80;;;;;;;;;;5083227;28;20052;-67
2022/11/29 12:30:38;;;;;;;18.92;12.07;;;;;;;;;;5081779;28;20044;-67
2022/11/29 12:33:21;;;;;;;21.35;12.75;;;;;;;;;;5074023;28;20581;-67
2022/11/29 12:35:54;;;;;;;23.65;13.18;;;;;;;;;;5062854;28;20050;-67
2022/11/29 12:38:20;;;;;;;;;;;;;;;;;;5050175;28;20052;-67
2022/11/29 12:40:52;;;;;;;21.85;12.50;;;;;;;;;;5065975;28;19920;-67
2022/11/29 12:43:22;;;;;;;23.13;11.75;;;;;;;;;;5057107;28;20048;-67
2022/11/29 12:46:06;;;;;;;18.13;12.63;;;;;;;;;;5075646;28;20097;-68
2022/11/29 12:48:32;;;;;;;19.30;11.63;;;;;;;;;;5050658;28;20135;-67
2022/11/29 12:51:00;;;;;;;21.08;12.02;;;;;;;;;;5081148;28;20558;-67
2022/11/29 12:53:45;;;;;;;20.95;12.02;;;;;;;;;;5075393;28;20052;-67
2022/11/29 12:56:23;;;;;;;23.42;12.70;;;;;;;;;;5080808;28;20392;-68
2022/11/29 12:58:58;;;;;;;15.98;10.70;;;;;;;;;;5037304;28;20056;-67
2022/11/29 13:01:30;;;;;;;17.75;9.43;;;;;;;;;;5070624;28;20391;-67
2022/11/29 13:04:03;;;;;;;12.50;8.35;;;;;;;;;;5076855;28;20037;-67
2022/11/29 13:06:30;;;;;;;18.63;8.52;;;;;;;;;;5060794;28;20051;-67
2022/11/29 13:08:56;;;;;;;13.85;8.13;;;;;;;;;;5081397;28;20044;-67
2022/11/29 13:11:27;;;;;;;13.38;8.45;;;;;;;;;;5083574;28;20040;-67
2022/11/29 13:13:58;;;;;;;14.07;9.45;;;;;;;;;;5085560;28;20035;-67
2022/11/29 13:16:31;;;;;;;11.23;7.32;;;;;;;;;;5082259;28;20036;-67
2022/11/29 13:18:58;;;;;;;9.50;5.40;;;;;;;;;;5056613;28;20455;-67
2022/11/29 13:21:31;;;;;;;9.23;6.22;;;;;;;;;;5061911;28;20472;-67
2022/11/29 13:24:16;;;;;;;7.40;5.72;;;;;;;;;;5065737;28;20484;-68
2022/11/29 13:26:43;;;;;;;9.93;6.47;;;;;;;;;;5074570;28;20055;-67
2022/11/29 13:29:13;;;;;;;10.05;6.80;;;;;;;;;;5079335;28;20040;-67
2022/11/29 13:31:39;;;;;;;14.65;6.93;;;;;;;;;;5083124;28;20044;-68
2022/11/29 13:34:08;;;;;;;10.88;6.60;;;;;;;;;;5064925;28;20056;-67
2022/11/29 13:36:56;;;;;;;12.20;6.65;;;;;;;;;;5078899;28;20123;-67
2022/11/29 13:39:30;;;;;;;12.13;7.20;;;;;;;;;;5083813;28;20075;-67
2022/11/29 13:42:03;;;;;;;12.13;6.80;;;;;;;;;;5055527;28;20052;-67
2022/11/29 13:44:34;;;;;;;11.53;7.30;;;;;;;;;;5084561;28;20123;-67
2022/11/29 13:47:04;;;;;;;8.93;6.55;;;;;;;;;;5082755;28;20749;-67
2022/11/29 13:49:49;;;;;;;10.52;7.20;;;;;;;;;;5040285;28;20040;-67
2022/11/29 13:52:36;;;;;;;10.02;6.07;;;;;;;;;;5079982;28;20120;-67
2022/11/29 13:55:04;;;;;;;9.07;6.07;;;;;;;;;;5076604;28;20110;-67
2022/11/29 13:57:46;;;;;;;7.68;5.65;;;;;;;;;;5077493;28;20037;-67
2022/11/29 14:00:38;;;;;;;11.70;5.97;;;;;;;;;;5085653;28;20392;-69
2022/11/29 14:03:19;;;;;;;16.60;6.07;;;;;;;;;;5061656;28;20059;-67
2022/11/29 14:05:47;;;;;;;12.63;6.30;;;;;;;;;;5084304;28;20048;-68
2022/11/29 14:08:24;;;;;;;10.18;6.55;;;;;;;;;;5055414;28;20059;-67
2022/11/29 14:10:51;;;;;;;9.43;6.70;;;;;;;;;;5077716;28;20419;-67
2022/11/29 14:13:18;;;;;;;12.77;7.40;;;;;;;;;;5081708;28;20047;-67
2022/11/29 14:15:51;;;;;;;9.63;6.85;;;;;;;;;;5079680;28;20134;-69
2022/11/29 14:18:17;;;;;;;;;;;;;;;;;;5077986;28;20086;-68
2022/11/29 14:20:52;;;;;;;11.20;6.70;;;;;;;;;;5083654;28;19924;-67
2022/11/29 14:23:32;;;;;;;9.00;6.90;;;;;;;;;;5062833;28;20060;-68
2022/11/29 14:25:59;;;;;;;11.38;8.57;;;;;;;;;;5035312;28;20477;-68
2022/11/29 14:28:28;;;;;;;14.05;7.45;;;;;;;;;;5072153;28;20047;-69
2022/11/29 14:30:57;;;;;;;13.10;8.52;;;;;;;;;;5075073;28;20040;-68
2022/11/29 14:33:29;;;;;;;10.85;7.43;;;;;;;;;;5072967;28;20044;-68
2022/11/29 14:36:04;;;;;;;9.95;6.80;;;;;;;;;;5059712;28;20123;-68
2022/11/29 14:38:34;;;;;;;11.10;7.25;;;;;;;;;;5062559;28;20055;-68
2022/11/29 14:41:14;;;;;;;12.23;8.38;;;;;;;;;;5059450;28;20090;-68
2022/11/29 14:43:41;;;;;;;10.43;8.00;;;;;;;;;;5055897;28;20036;-68
2022/11/29 14:46:09;;;;;;;12.77;7.55;;;;;;;;;;5073635;28;20055;-68
2022/11/29 14:48:35;;;;;;;12.38;8.60;;;;;;;;;;5072546;28;20119;-68